EIKN/NOC METAR and TAF weather

Enter ICAO airport designator
Station Type Date Time Source
EIKN METAR 2019/06/17 13:00 UTC NOAA

EIKN 171300Z 23010KT 200V260 9999 FEW020CB BKN026 BKN038 13/10 Q1009 NOSIG


Station Type Date Time Source
EIKN Decoded METAR 2019/06/17 13:00 UTC NOAA

Connaught, Ireland (EIKN) 53-54-37N 008-49-05W
Jun 17, 2019 - 09:00 AM EDT / 2019.06.17 1300 UTC
Wind: from the SW (230 degrees) at 12 MPH (10 KT) (direction variable):0
Visibility: greater than 7 mile(s):0
Sky conditions: mostly cloudy
Weather: Cumulonimbus clouds observed
Temperature: 55 F (13 C)
Dew Point: 50 F (10 C)
Relative Humidity: 81%
Pressure (altimeter): 29.80 in. Hg (1009 hPa)
ob: EIKN 171300Z 23010KT 200V260 9999 FEW020CB BKN026 BKN038 13/10 Q1009 NOSIG
cycle: 13

Station Type Date Time Source
EIKN TAF 2019/06/17 12:09 UTC NOAA

TAF EIKN 171100Z 1712/1812 23010KT 9999 SCT010 BKN030
TEMPO 1712/1720 -SHRA BKN012 SCT018CB PROB30
TEMPO 1712/1715 22015G25KT PROB30
TEMPO 1723/1805 4000 BR

Example: see airport list